Terminal Aerodrome Forecast
Issued by NWS

Home | Current Version | Previous Version | Text Only | Print | Product List | Glossary On
Versions: 1 2 3 4 5 6 7 8 9 10 11 12 13 14
000
FTUS44 KMAF 311122
TAFHOB
TAF
KHOB 311122Z 3112/0112 17008KT P6SM FEW250
     FM311500 16012G19KT P6SM SCT090
     FM010100 15007KT P6SM FEW250=

USA.gov is the U.S. government's official web portal to all federal, state and local government web resources and services.